sensor_id;sensor_type;location;lat;lon;timestamp;P1;durP1;ratioP1;P2;durP2;ratioP2
35223;SDS011;21367;51.930;8.112;2023-07-30T00:08:55;12.93;;;5.35;;
35223;SDS011;21367;51.930;8.112;2023-07-30T00:14:02;11.70;;;5.07;;
35223;SDS011;21367;51.930;8.112;2023-07-30T00:19:05;18.52;;;5.70;;
35223;SDS011;21367;51.930;8.112;2023-07-30T00:24:09;14.77;;;5.65;;
35223;SDS011;21367;51.930;8.112;2023-07-30T00:29:15;11.07;;;6.18;;
35223;SDS011;21367;51.930;8.112;2023-07-30T00:34:20;13.02;;;6.43;;
35223;SDS011;21367;51.930;8.112;2023-07-30T00:39:23;12.38;;;5.60;;
35223;SDS011;21367;51.930;8.112;2023-07-30T00:44:30;11.20;;;5.88;;
35223;SDS011;21367;51.930;8.112;2023-07-30T00:49:33;12.95;;;5.97;;
35223;SDS011;21367;51.930;8.112;2023-07-30T00:54:39;12.65;;;6.22;;
35223;SDS011;21367;51.930;8.112;2023-07-30T00:59:45;25.60;;;7.00;;
35223;SDS011;21367;51.930;8.112;2023-07-30T01:04:50;12.88;;;6.18;;
35223;SDS011;21367;51.930;8.112;2023-07-30T01:09:55;16.65;;;6.82;;
35223;SDS011;21367;51.930;8.112;2023-07-30T01:15:02;13.25;;;6.70;;
35223;SDS011;21367;51.930;8.112;2023-07-30T01:20:07;14.02;;;6.15;;
35223;SDS011;21367;51.930;8.112;2023-07-30T01:25:14;12.82;;;6.05;;
35223;SDS011;21367;51.930;8.112;2023-07-30T01:30:18;14.98;;;6.25;;
35223;SDS011;21367;51.930;8.112;2023-07-30T01:35:27;16.63;;;6.25;;
35223;SDS011;21367;51.930;8.112;2023-07-30T01:40:34;14.73;;;6.65;;
35223;SDS011;21367;51.930;8.112;2023-07-30T01:45:38;19.02;;;7.07;;
35223;SDS011;21367;51.930;8.112;2023-07-30T01:50:42;13.10;;;7.03;;
35223;SDS011;21367;51.930;8.112;2023-07-30T01:55:50;19.23;;;6.68;;
35223;SDS011;21367;51.930;8.112;2023-07-30T02:00:53;13.23;;;6.85;;
35223;SDS011;21367;51.930;8.112;2023-07-30T02:05:58;16.75;;;7.20;;
35223;SDS011;21367;51.930;8.112;2023-07-30T02:11:05;15.55;;;7.85;;
35223;SDS011;21367;51.930;8.112;2023-07-30T02:21:12;14.70;;;6.13;;
35223;SDS011;21367;51.930;8.112;2023-07-30T02:26:18;15.60;;;6.40;;
35223;SDS011;21367;51.930;8.112;2023-07-30T02:31:22;17.10;;;6.07;;
35223;SDS011;21367;51.930;8.112;2023-07-30T02:36:26;11.02;;;4.90;;
35223;SDS011;21367;51.930;8.112;2023-07-30T02:41:33;24.00;;;5.53;;
35223;SDS011;21367;51.930;8.112;2023-07-30T02:51:40;20.20;;;4.57;;
35223;SDS011;21367;51.930;8.112;2023-07-30T02:56:51;13.45;;;4.85;;
35223;SDS011;21367;51.930;8.112;2023-07-30T03:01:55;23.38;;;4.50;;
35223;SDS011;21367;51.930;8.112;2023-07-30T03:06:58;14.60;;;4.50;;
35223;SDS011;21367;51.930;8.112;2023-07-30T03:12:05;15.57;;;4.18;;
35223;SDS011;21367;51.930;8.112;2023-07-30T03:17:09;12.50;;;4.43;;
35223;SDS011;21367;51.930;8.112;2023-07-30T03:22:13;21.73;;;4.80;;
35223;SDS011;21367;51.930;8.112;2023-07-30T03:27:19;13.55;;;4.53;;
35223;SDS011;21367;51.930;8.112;2023-07-30T03:32:23;12.95;;;4.35;;
35223;SDS011;21367;51.930;8.112;2023-07-30T03:37:27;11.60;;;4.43;;
35223;SDS011;21367;51.930;8.112;2023-07-30T03:42:33;17.13;;;4.78;;
35223;SDS011;21367;51.930;8.112;2023-07-30T03:47:37;17.90;;;3.70;;
35223;SDS011;21367;51.930;8.112;2023-07-30T03:52:41;14.25;;;4.10;;
35223;SDS011;21367;51.930;8.112;2023-07-30T03:57:47;13.00;;;4.25;;
35223;SDS011;21367;51.930;8.112;2023-07-30T04:02:51;22.60;;;4.38;;
35223;SDS011;21367;51.930;8.112;2023-07-30T04:07:55;13.50;;;3.65;;
35223;SDS011;21367;51.930;8.112;2023-07-30T04:13:01;14.23;;;4.43;;
35223;SDS011;21367;51.930;8.112;2023-07-30T04:23:08;13.73;;;3.88;;
35223;SDS011;21367;51.930;8.112;2023-07-30T04:28:15;18.80;;;4.30;;
35223;SDS011;21367;51.930;8.112;2023-07-30T04:33:19;9.27;;;4.07;;
35223;SDS011;21367;51.930;8.112;2023-07-30T04:38:23;15.75;;;4.60;;
35223;SDS011;21367;51.930;8.112;2023-07-30T04:43:29;17.80;;;4.47;;
35223;SDS011;21367;51.930;8.112;2023-07-30T04:48:33;16.05;;;4.70;;
35223;SDS011;21367;51.930;8.112;2023-07-30T04:53:37;14.13;;;4.07;;
35223;SDS011;21367;51.930;8.112;2023-07-30T04:58:43;21.33;;;4.57;;
35223;SDS011;21367;51.930;8.112;2023-07-30T05:03:47;15.45;;;4.70;;
35223;SDS011;21367;51.930;8.112;2023-07-30T05:08:50;13.68;;;4.32;;
35223;SDS011;21367;51.930;8.112;2023-07-30T05:13:57;19.48;;;3.72;;
35223;SDS011;21367;51.930;8.112;2023-07-30T05:19:01;19.08;;;4.70;;
35223;SDS011;21367;51.930;8.112;2023-07-30T05:24:04;22.75;;;5.93;;
35223;SDS011;21367;51.930;8.112;2023-07-30T05:29:11;17.77;;;3.67;;
35223;SDS011;21367;51.930;8.112;2023-07-30T05:34:14;18.42;;;4.47;;
35223;SDS011;21367;51.930;8.112;2023-07-30T05:39:18;13.07;;;4.45;;
35223;SDS011;21367;51.930;8.112;2023-07-30T05:44:24;23.17;;;4.40;;
35223;SDS011;21367;51.930;8.112;2023-07-30T05:49:28;18.95;;;4.45;;
35223;SDS011;21367;51.930;8.112;2023-07-30T05:54:32;16.58;;;4.47;;
35223;SDS011;21367;51.930;8.112;2023-07-30T05:59:38;19.73;;;4.70;;
35223;SDS011;21367;51.930;8.112;2023-07-30T06:04:42;15.35;;;4.53;;
35223;SDS011;21367;51.930;8.112;2023-07-30T06:09:46;18.35;;;4.20;;
35223;SDS011;21367;51.930;8.112;2023-07-30T06:14:52;18.02;;;4.32;;
35223;SDS011;21367;51.930;8.112;2023-07-30T06:19:56;14.60;;;5.93;;
35223;SDS011;21367;51.930;8.112;2023-07-30T06:24:59;18.75;;;5.32;;
35223;SDS011;21367;51.930;8.112;2023-07-30T06:30:06;20.35;;;7.00;;
35223;SDS011;21367;51.930;8.112;2023-07-30T06:35:10;25.85;;;7.13;;
35223;SDS011;21367;51.930;8.112;2023-07-30T06:40:14;27.40;;;8.07;;
35223;SDS011;21367;51.930;8.112;2023-07-30T06:45:20;18.95;;;8.65;;
35223;SDS011;21367;51.930;8.112;2023-07-30T06:50:25;24.95;;;9.65;;
35223;SDS011;21367;51.930;8.112;2023-07-30T06:55:28;21.70;;;10.40;;
35223;SDS011;21367;51.930;8.112;2023-07-30T07:00:34;32.22;;;11.57;;
35223;SDS011;21367;51.930;8.112;2023-07-30T07:05:38;36.90;;;13.73;;
35223;SDS011;21367;51.930;8.112;2023-07-30T07:10:43;27.23;;;12.38;;
35223;SDS011;21367;51.930;8.112;2023-07-30T07:15:49;25.80;;;11.25;;
35223;SDS011;21367;51.930;8.112;2023-07-30T07:20:53;36.75;;;12.63;;
35223;SDS011;21367;51.930;8.112;2023-07-30T07:25:57;33.38;;;11.40;;
35223;SDS011;21367;51.930;8.112;2023-07-30T07:31:03;42.75;;;13.60;;
35223;SDS011;21367;51.930;8.112;2023-07-30T07:36:08;32.78;;;14.85;;
35223;SDS011;21367;51.930;8.112;2023-07-30T07:41:13;33.33;;;16.55;;
35223;SDS011;21367;51.930;8.112;2023-07-30T07:46:21;45.55;;;22.02;;
35223;SDS011;21367;51.930;8.112;2023-07-30T07:51:26;41.97;;;21.77;;
35223;SDS011;21367;51.930;8.112;2023-07-30T07:56:30;43.47;;;19.77;;
35223;SDS011;21367;51.930;8.112;2023-07-30T08:01:37;59.05;;;23.90;;
35223;SDS011;21367;51.930;8.112;2023-07-30T08:06:41;53.92;;;21.65;;
35223;SDS011;21367;51.930;8.112;2023-07-30T08:11:45;44.90;;;20.08;;
35223;SDS011;21367;51.930;8.112;2023-07-30T08:16:51;42.88;;;16.92;;
35223;SDS011;21367;51.930;8.112;2023-07-30T08:26:58;44.00;;;14.25;;
35223;SDS011;21367;51.930;8.112;2023-07-30T08:32:05;33.00;;;14.55;;
35223;SDS011;21367;51.930;8.112;2023-07-30T08:37:09;32.83;;;15.00;;
35223;SDS011;21367;51.930;8.112;2023-07-30T08:42:12;39.28;;;15.70;;
35223;SDS011;21367;51.930;8.112;2023-07-30T08:47:19;32.28;;;14.23;;
35223;SDS011;21367;51.930;8.112;2023-07-30T08:52:23;33.05;;;12.23;;
35223;SDS011;21367;51.930;8.112;2023-07-30T08:57:28;43.27;;;12.73;;
35223;SDS011;21367;51.930;8.112;2023-07-30T09:02:37;30.92;;;12.15;;
35223;SDS011;21367;51.930;8.112;2023-07-30T09:07:42;32.97;;;12.20;;
35223;SDS011;21367;51.930;8.112;2023-07-30T09:12:46;34.88;;;11.30;;
35223;SDS011;21367;51.930;8.112;2023-07-30T09:17:58;33.40;;;12.85;;
35223;SDS011;21367;51.930;8.112;2023-07-30T09:23:02;37.33;;;14.70;;
35223;SDS011;21367;51.930;8.112;2023-07-30T09:28:06;41.35;;;17.90;;
35223;SDS011;21367;51.930;8.112;2023-07-30T09:33:12;43.67;;;20.60;;
35223;SDS011;21367;51.930;8.112;2023-07-30T09:38:22;35.35;;;18.05;;
35223;SDS011;21367;51.930;8.112;2023-07-30T09:43:27;37.33;;;19.73;;
35223;SDS011;21367;51.930;8.112;2023-07-30T09:48:34;37.22;;;18.05;;
35223;SDS011;21367;51.930;8.112;2023-07-30T09:53:38;37.20;;;16.30;;
35223;SDS011;21367;51.930;8.112;2023-07-30T09:58:42;38.00;;;15.75;;
35223;SDS011;21367;51.930;8.112;2023-07-30T10:03:48;32.00;;;13.85;;
35223;SDS011;21367;51.930;8.112;2023-07-30T10:08:52;27.98;;;14.00;;
35223;SDS011;21367;51.930;8.112;2023-07-30T10:13:59;26.25;;;11.65;;
35223;SDS011;21367;51.930;8.112;2023-07-30T10:19:06;28.05;;;10.30;;
35223;SDS011;21367;51.930;8.112;2023-07-30T10:24:09;25.45;;;9.07;;
35223;SDS011;21367;51.930;8.112;2023-07-30T10:29:14;33.80;;;9.30;;
35223;SDS011;21367;51.930;8.112;2023-07-30T10:34:22;22.63;;;7.97;;
35223;SDS011;21367;51.930;8.112;2023-07-30T10:39:29;20.50;;;7.63;;
35223;SDS011;21367;51.930;8.112;2023-07-30T10:44:33;14.45;;;6.25;;
35223;SDS011;21367;51.930;8.112;2023-07-30T10:49:41;17.50;;;4.95;;
35223;SDS011;21367;51.930;8.112;2023-07-30T10:54:47;16.40;;;5.13;;
35223;SDS011;21367;51.930;8.112;2023-07-30T10:59:50;19.77;;;4.93;;
35223;SDS011;21367;51.930;8.112;2023-07-30T11:04:58;19.63;;;4.53;;
35223;SDS011;21367;51.930;8.112;2023-07-30T11:10:14;11.85;;;3.60;;
35223;SDS011;21367;51.930;8.112;2023-07-30T11:15:18;15.35;;;3.45;;
35223;SDS011;21367;51.930;8.112;2023-07-30T11:20:25;11.10;;;3.15;;
35223;SDS011;21367;51.930;8.112;2023-07-30T11:25:30;9.32;;;2.50;;
35223;SDS011;21367;51.930;8.112;2023-07-30T11:30:33;11.38;;;2.70;;
35223;SDS011;21367;51.930;8.112;2023-07-30T11:35:40;10.85;;;2.45;;
35223;SDS011;21367;51.930;8.112;2023-07-30T11:40:43;12.57;;;3.33;;
35223;SDS011;21367;51.930;8.112;2023-07-30T11:45:47;11.70;;;2.78;;
35223;SDS011;21367;51.930;8.112;2023-07-30T11:50:54;10.80;;;3.22;;
35223;SDS011;21367;51.930;8.112;2023-07-30T11:55:57;12.18;;;3.30;;
35223;SDS011;21367;51.930;8.112;2023-07-30T12:01:01;13.05;;;3.13;;
35223;SDS011;21367;51.930;8.112;2023-07-30T12:06:07;15.32;;;3.47;;
35223;SDS011;21367;51.930;8.112;2023-07-30T12:11:12;12.25;;;2.92;;
35223;SDS011;21367;51.930;8.112;2023-07-30T12:16:16;9.43;;;2.53;;
35223;SDS011;21367;51.930;8.112;2023-07-30T12:21:22;14.43;;;2.67;;
35223;SDS011;21367;51.930;8.112;2023-07-30T12:26:26;15.35;;;3.08;;
35223;SDS011;21367;51.930;8.112;2023-07-30T12:31:30;17.38;;;2.53;;
35223;SDS011;21367;51.930;8.112;2023-07-30T12:36:36;17.35;;;2.45;;
35223;SDS011;21367;51.930;8.112;2023-07-30T12:41:42;14.52;;;2.30;;
35223;SDS011;21367;51.930;8.112;2023-07-30T12:46:45;14.43;;;2.35;;
35223;SDS011;21367;51.930;8.112;2023-07-30T12:51:52;8.82;;;2.03;;
35223;SDS011;21367;51.930;8.112;2023-07-30T12:56:56;13.55;;;1.95;;
35223;SDS011;21367;51.930;8.112;2023-07-30T13:01:59;13.38;;;2.15;;
35223;SDS011;21367;51.930;8.112;2023-07-30T13:07:05;12.25;;;1.88;;
35223;SDS011;21367;51.930;8.112;2023-07-30T13:12:09;12.30;;;2.53;;
35223;SDS011;21367;51.930;8.112;2023-07-30T13:17:13;16.83;;;3.35;;
35223;SDS011;21367;51.930;8.112;2023-07-30T13:22:19;8.68;;;1.88;;
35223;SDS011;21367;51.930;8.112;2023-07-30T13:27:23;9.73;;;1.58;;
35223;SDS011;21367;51.930;8.112;2023-07-30T13:32:27;7.43;;;1.13;;
35223;SDS011;21367;51.930;8.112;2023-07-30T13:37:33;6.22;;;1.13;;
35223;SDS011;21367;51.930;8.112;2023-07-30T13:42:37;3.70;;;0.90;;
35223;SDS011;21367;51.930;8.112;2023-07-30T13:47:40;5.85;;;1.20;;
35223;SDS011;21367;51.930;8.112;2023-07-30T13:52:47;8.55;;;1.15;;
35223;SDS011;21367;51.930;8.112;2023-07-30T13:57:50;6.20;;;1.40;;
35223;SDS011;21367;51.930;8.112;2023-07-30T14:02:54;4.88;;;1.20;;
35223;SDS011;21367;51.930;8.112;2023-07-30T14:08:00;6.97;;;1.20;;
35223;SDS011;21367;51.930;8.112;2023-07-30T14:13:04;5.95;;;1.20;;
35223;SDS011;21367;51.930;8.112;2023-07-30T14:18:08;8.70;;;1.10;;
35223;SDS011;21367;51.930;8.112;2023-07-30T14:23:14;6.47;;;1.40;;
35223;SDS011;21367;51.930;8.112;2023-07-30T14:28:18;7.68;;;1.38;;
35223;SDS011;21367;51.930;8.112;2023-07-30T14:33:22;8.55;;;1.90;;
35223;SDS011;21367;51.930;8.112;2023-07-30T14:38:28;9.13;;;1.60;;
35223;SDS011;21367;51.930;8.112;2023-07-30T14:43:34;8.93;;;1.55;;
35223;SDS011;21367;51.930;8.112;2023-07-30T14:48:37;9.82;;;1.38;;
35223;SDS011;21367;51.930;8.112;2023-07-30T14:53:47;4.65;;;0.95;;
35223;SDS011;21367;51.930;8.112;2023-07-30T14:58:51;8.00;;;1.40;;
35223;SDS011;21367;51.930;8.112;2023-07-30T15:03:55;8.98;;;1.33;;
35223;SDS011;21367;51.930;8.112;2023-07-30T15:09:03;11.57;;;1.33;;
35223;SDS011;21367;51.930;8.112;2023-07-30T15:14:07;9.55;;;1.45;;
35223;SDS011;21367;51.930;8.112;2023-07-30T15:19:11;16.10;;;1.88;;
35223;SDS011;21367;51.930;8.112;2023-07-30T15:24:18;8.65;;;1.23;;
35223;SDS011;21367;51.930;8.112;2023-07-30T15:29:22;10.18;;;1.65;;
35223;SDS011;21367;51.930;8.112;2023-07-30T15:34:26;9.68;;;1.45;;
35223;SDS011;21367;51.930;8.112;2023-07-30T15:39:32;10.70;;;2.45;;
35223;SDS011;21367;51.930;8.112;2023-07-30T15:44:36;11.35;;;1.35;;
35223;SDS011;21367;51.930;8.112;2023-07-30T15:49:40;7.32;;;1.20;;
35223;SDS011;21367;51.930;8.112;2023-07-30T15:54:46;4.22;;;1.20;;
35223;SDS011;21367;51.930;8.112;2023-07-30T15:59:50;6.53;;;1.23;;
35223;SDS011;21367;51.930;8.112;2023-07-30T16:04:55;10.75;;;1.52;;
35223;SDS011;21367;51.930;8.112;2023-07-30T16:10:03;8.90;;;1.20;;
35223;SDS011;21367;51.930;8.112;2023-07-30T16:15:07;5.63;;;1.23;;
35223;SDS011;21367;51.930;8.112;2023-07-30T16:20:12;5.72;;;1.10;;
35223;SDS011;21367;51.930;8.112;2023-07-30T16:25:18;11.65;;;1.33;;
35223;SDS011;21367;51.930;8.112;2023-07-30T16:30:22;10.63;;;1.83;;
35223;SDS011;21367;51.930;8.112;2023-07-30T16:35:25;8.90;;;1.58;;
35223;SDS011;21367;51.930;8.112;2023-07-30T16:40:32;5.68;;;1.25;;
35223;SDS011;21367;51.930;8.112;2023-07-30T16:45:35;9.63;;;1.60;;
35223;SDS011;21367;51.930;8.112;2023-07-30T16:50:40;10.60;;;2.08;;
35223;SDS011;21367;51.930;8.112;2023-07-30T16:55:50;8.15;;;1.50;;
35223;SDS011;21367;51.930;8.112;2023-07-30T17:01:00;11.57;;;1.58;;
35223;SDS011;21367;51.930;8.112;2023-07-30T17:06:04;22.10;;;1.88;;
35223;SDS011;21367;51.930;8.112;2023-07-30T17:11:11;7.05;;;1.38;;
35223;SDS011;21367;51.930;8.112;2023-07-30T17:16:15;8.38;;;1.90;;
35223;SDS011;21367;51.930;8.112;2023-07-30T17:21:19;9.07;;;1.85;;
35223;SDS011;21367;51.930;8.112;2023-07-30T17:26:27;6.63;;;1.45;;
35223;SDS011;21367;51.930;8.112;2023-07-30T17:31:31;10.30;;;1.90;;
35223;SDS011;21367;51.930;8.112;2023-07-30T17:36:35;12.50;;;1.92;;
35223;SDS011;21367;51.930;8.112;2023-07-30T17:41:41;7.68;;;1.50;;
35223;SDS011;21367;51.930;8.112;2023-07-30T17:46:45;10.95;;;1.60;;
35223;SDS011;21367;51.930;8.112;2023-07-30T17:51:49;9.18;;;1.88;;
35223;SDS011;21367;51.930;8.112;2023-07-30T17:56:56;10.43;;;1.55;;
35223;SDS011;21367;51.930;8.112;2023-07-30T18:01:59;12.18;;;1.77;;
35223;SDS011;21367;51.930;8.112;2023-07-30T18:07:09;11.70;;;2.00;;
35223;SDS011;21367;51.930;8.112;2023-07-30T18:12:15;6.70;;;1.70;;
35223;SDS011;21367;51.930;8.112;2023-07-30T18:17:19;12.75;;;1.77;;
35223;SDS011;21367;51.930;8.112;2023-07-30T18:22:24;7.30;;;1.50;;
35223;SDS011;21367;51.930;8.112;2023-07-30T18:27:30;12.02;;;2.22;;
35223;SDS011;21367;51.930;8.112;2023-07-30T18:32:34;12.18;;;1.70;;
35223;SDS011;21367;51.930;8.112;2023-07-30T18:37:37;8.73;;;1.40;;
35223;SDS011;21367;51.930;8.112;2023-07-30T18:42:53;7.63;;;1.40;;
35223;SDS011;21367;51.930;8.112;2023-07-30T18:47:56;10.50;;;1.65;;
35223;SDS011;21367;51.930;8.112;2023-07-30T18:53:00;12.93;;;1.65;;
35223;SDS011;21367;51.930;8.112;2023-07-30T18:58:07;11.80;;;2.17;;
35223;SDS011;21367;51.930;8.112;2023-07-30T19:03:10;8.13;;;1.77;;
35223;SDS011;21367;51.930;8.112;2023-07-30T19:08:14;16.45;;;1.88;;
35223;SDS011;21367;51.930;8.112;2023-07-30T19:13:22;13.60;;;1.92;;
35223;SDS011;21367;51.930;8.112;2023-07-30T19:18:27;9.02;;;1.65;;
35223;SDS011;21367;51.930;8.112;2023-07-30T19:23:31;9.23;;;1.42;;
35223;SDS011;21367;51.930;8.112;2023-07-30T19:28:37;7.65;;;1.75;;
35223;SDS011;21367;51.930;8.112;2023-07-30T19:33:41;9.07;;;1.88;;
35223;SDS011;21367;51.930;8.112;2023-07-30T19:38:45;10.57;;;1.92;;
35223;SDS011;21367;51.930;8.112;2023-07-30T19:43:51;11.40;;;1.92;;
35223;SDS011;21367;51.930;8.112;2023-07-30T19:48:55;15.07;;;1.85;;
35223;SDS011;21367;51.930;8.112;2023-07-30T19:54:01;19.08;;;3.22;;
35223;SDS011;21367;51.930;8.112;2023-07-30T19:59:07;12.25;;;2.35;;
35223;SDS011;21367;51.930;8.112;2023-07-30T20:04:11;11.45;;;2.17;;
35223;SDS011;21367;51.930;8.112;2023-07-30T20:09:15;13.38;;;2.15;;
35223;SDS011;21367;51.930;8.112;2023-07-30T20:14:21;8.02;;;1.67;;
35223;SDS011;21367;51.930;8.112;2023-07-30T20:19:24;9.90;;;2.20;;
35223;SDS011;21367;51.930;8.112;2023-07-30T20:24:30;9.35;;;1.90;;
35223;SDS011;21367;51.930;8.112;2023-07-30T20:29:36;8.98;;;1.73;;
35223;SDS011;21367;51.930;8.112;2023-07-30T20:34:39;8.07;;;1.90;;
35223;SDS011;21367;51.930;8.112;2023-07-30T20:39:43;7.97;;;2.03;;
35223;SDS011;21367;51.930;8.112;2023-07-30T20:44:49;12.13;;;2.10;;
35223;SDS011;21367;51.930;8.112;2023-07-30T20:49:53;7.15;;;2.25;;
35223;SDS011;21367;51.930;8.112;2023-07-30T20:54:58;7.53;;;2.45;;
35223;SDS011;21367;51.930;8.112;2023-07-30T21:00:06;8.57;;;3.03;;
35223;SDS011;21367;51.930;8.112;2023-07-30T21:05:10;9.20;;;3.83;;
35223;SDS011;21367;51.930;8.112;2023-07-30T21:10:14;7.00;;;3.33;;
35223;SDS011;21367;51.930;8.112;2023-07-30T21:15:20;11.35;;;3.67;;
35223;SDS011;21367;51.930;8.112;2023-07-30T21:20:25;10.27;;;3.80;;
35223;SDS011;21367;51.930;8.112;2023-07-30T21:25:29;16.92;;;4.25;;
35223;SDS011;21367;51.930;8.112;2023-07-30T21:30:37;9.30;;;4.50;;
35223;SDS011;21367;51.930;8.112;2023-07-30T21:35:40;13.18;;;4.72;;
35223;SDS011;21367;51.930;8.112;2023-07-30T21:40:45;12.20;;;4.20;;
35223;SDS011;21367;51.930;8.112;2023-07-30T21:45:52;17.20;;;5.25;;
35223;SDS011;21367;51.930;8.112;2023-07-30T21:50:57;10.90;;;4.65;;
35223;SDS011;21367;51.930;8.112;2023-07-30T21:56:01;12.90;;;5.25;;
35223;SDS011;21367;51.930;8.112;2023-07-30T22:01:07;16.65;;;3.90;;
35223;SDS011;21367;51.930;8.112;2023-07-30T22:06:11;12.65;;;4.20;;
35223;SDS011;21367;51.930;8.112;2023-07-30T22:11:15;10.30;;;4.88;;
35223;SDS011;21367;51.930;8.112;2023-07-30T22:16:21;10.10;;;3.88;;
35223;SDS011;21367;51.930;8.112;2023-07-30T22:21:25;12.23;;;2.95;;
35223;SDS011;21367;51.930;8.112;2023-07-30T22:26:28;12.43;;;2.95;;
35223;SDS011;21367;51.930;8.112;2023-07-30T22:31:35;8.48;;;3.45;;
35223;SDS011;21367;51.930;8.112;2023-07-30T22:36:41;11.45;;;3.90;;
35223;SDS011;21367;51.930;8.112;2023-07-30T22:41:45;8.95;;;3.70;;
35223;SDS011;21367;51.930;8.112;2023-07-30T22:46:51;7.22;;;3.65;;
35223;SDS011;21367;51.930;8.112;2023-07-30T22:56:58;10.38;;;4.03;;
35223;SDS011;21367;51.930;8.112;2023-07-30T23:02:04;7.05;;;3.33;;
35223;SDS011;21367;51.930;8.112;2023-07-30T23:07:08;5.93;;;2.85;;
35223;SDS011;21367;51.930;8.112;2023-07-30T23:12:11;6.15;;;2.33;;
35223;SDS011;21367;51.930;8.112;2023-07-30T23:17:18;5.40;;;2.00;;
35223;SDS011;21367;51.930;8.112;2023-07-30T23:22:22;5.55;;;2.38;;
35223;SDS011;21367;51.930;8.112;2023-07-30T23:27:25;10.48;;;4.43;;
35223;SDS011;21367;51.930;8.112;2023-07-30T23:32:32;16.38;;;5.85;;
35223;SDS011;21367;51.930;8.112;2023-07-30T23:42:39;15.45;;;6.43;;
35223;SDS011;21367;51.930;8.112;2023-07-30T23:47:45;14.63;;;5.82;;
35223;SDS011;21367;51.930;8.112;2023-07-30T23:57:52;15.00;;;5.53;;
